Time;durP1;ratioP1;P1;durP2;ratioP2;P2;SDS_P1;SDS_P2;PMS_P1;PMS_P2;Temp;Humidity;BMP_temperature;BMP_pressure;BME280_temperature;BME280_humidity;BME280_pressure;Samples;Min_cycle;Max_cycle;Signal;HPM_P1;HPM_P2
2021/03/11 00:00:38;;;;;;;0.10;0.00;;;12.10;72.10;;;;;;5056506;28;20037;-83
2021/03/11 00:03:08;;;;;;;0.40;0.03;;;12.10;72.10;;;;;;5039760;28;20694;-83
2021/03/11 00:05:35;;;;;;;0.00;0.00;;;12.20;72.20;;;;;;5057440;28;20024;-83
2021/03/11 00:08:02;;;;;;;2.45;0.15;;;12.20;72.30;;;;;;5042926;28;20037;-83
2021/03/11 00:10:28;;;;;;;12.65;0.45;;;12.20;72.30;;;;;;5039938;28;20503;-83
2021/03/11 00:12:54;;;;;;;6.32;0.28;;;12.30;72.40;;;;;;5068366;28;20091;-83
2021/03/11 00:15:21;;;;;;;4.55;0.65;;;12.40;72.40;;;;;;5054200;28;20041;-83
2021/03/11 00:17:47;;;;;;;0.00;0.00;;;12.40;72.50;;;;;;5064749;28;20040;-83
2021/03/11 00:20:15;;;;;;;1.10;0.10;;;12.50;72.40;;;;;;5039955;28;20037;-84
2021/03/11 00:22:41;;;;;;;0.20;0.20;;;12.50;72.50;;;;;;5036872;28;20052;-85
2021/03/11 00:25:08;;;;;;;0.10;0.10;;;12.60;72.60;;;;;;5056194;28;20027;-83
2021/03/11 00:27:35;;;;;;;1.55;0.30;;;12.60;72.60;;;;;;5054074;28;20041;-85
2021/03/11 00:30:01;;;;;;;0.85;0.30;;;12.60;72.60;;;;;;5056212;28;20021;-86
2021/03/11 00:32:27;;;;;;;1.05;0.20;;;12.70;72.70;;;;;;5039356;28;20053;-83
2021/03/11 00:34:53;;;;;;;0.75;0.10;;;12.70;72.70;;;;;;5038494;28;20045;-83
2021/03/11 00:37:19;;;;;;;0.77;0.08;;;12.80;72.80;;;;;;5057393;28;20025;-84
2021/03/11 00:39:45;;;;;;;0.98;0.15;;;12.80;72.90;;;;;;5063895;28;20048;-83
2021/03/11 00:42:11;;;;;;;0.25;0.10;;;12.80;73.00;;;;;;5054506;28;20052;-83
2021/03/11 00:44:37;;;;;;;4.20;0.57;;;12.90;73.10;;;;;;5056849;28;20029;-83
2021/03/11 00:47:05;;;;;;;1.50;0.35;;;12.90;73.20;;;;;;5059694;28;20040;-83
2021/03/11 00:49:31;;;;;;;0.10;0.05;;;12.90;73.30;;;;;;5036923;28;20038;-84
2021/03/11 00:51:57;;;;;;;0.10;0.00;;;12.90;73.50;;;;;;5056245;28;20039;-83
2021/03/11 00:54:23;;;;;;;0.20;0.20;;;12.90;73.50;;;;;;5035802;28;20033;-83
2021/03/11 00:56:49;;;;;;;0.17;0.00;;;12.90;73.60;;;;;;5057100;28;20044;-83
2021/03/11 00:59:15;;;;;;;1.45;0.03;;;12.80;73.60;;;;;;5056896;28;20025;-82
2021/03/11 01:01:42;;;;;;;1.15;0.40;;;12.90;73.70;;;;;;5056731;28;20040;-82
2021/03/11 01:04:08;;;;;;;0.10;0.00;;;12.90;73.80;;;;;;5055615;28;20064;-83
2021/03/11 01:06:34;;;;;;;0.52;0.35;;;12.90;73.80;;;;;;5036534;28;20045;-82
2021/03/11 01:09:00;;;;;;;0.63;0.20;;;12.90;73.90;;;;;;5070417;28;20500;-85
2021/03/11 01:11:26;;;;;;;0.40;0.20;;;12.90;73.90;;;;;;5055068;28;20055;-83
2021/03/11 01:13:52;;;;;;;0.13;0.10;;;12.90;73.90;;;;;;5055767;28;20040;-83
2021/03/11 01:16:18;;;;;;;0.20;0.00;;;12.90;73.90;;;;;;5055155;28;20127;-83
2021/03/11 01:18:44;;;;;;;0.38;0.03;;;12.90;74.00;;;;;;5045460;28;20394;-83
2021/03/11 01:21:11;;;;;;;2.65;0.88;;;12.90;74.10;;;;;;5070806;28;20044;-83
2021/03/11 01:23:37;;;;;;;0.35;0.00;;;12.90;74.10;;;;;;5057006;28;20036;-83
2021/03/11 01:26:03;;;;;;;0.30;0.17;;;12.90;74.10;;;;;;5058704;28;20063;-84
2021/03/11 01:28:29;;;;;;;1.98;0.20;;;12.90;74.20;;;;;;5063378;28;20406;-83
2021/03/11 01:30:55;;;;;;;0.00;0.00;;;12.90;74.20;;;;;;5066998;28;20500;-85
2021/03/11 01:33:21;;;;;;;0.00;0.00;;;13.00;74.40;;;;;;5019630;28;20041;-83
2021/03/11 01:35:48;;;;;;;0.00;0.00;;;13.00;74.40;;;;;;5057717;28;20025;-82
2021/03/11 01:38:14;;;;;;;1.02;0.20;;;13.00;74.50;;;;;;5064054;28;20040;-83
2021/03/11 01:40:40;;;;;;;0.10;0.00;;;13.00;74.50;;;;;;5061296;28;20032;-83
2021/03/11 01:43:06;;;;;;;0.55;0.22;;;13.00;74.50;;;;;;5038863;28;20040;-83
2021/03/11 01:45:32;;;;;;;0.15;0.10;;;13.00;74.60;;;;;;5052159;28;20028;-83
2021/03/11 01:47:58;;;;;;;0.22;0.00;;;13.00;74.60;;;;;;5064168;28;20032;-82
2021/03/11 01:50:24;;;;;;;0.10;0.00;;;13.00;74.70;;;;;;5056533;28;20028;-82
2021/03/11 01:52:51;;;;;;;0.00;0.00;;;13.00;74.60;;;;;;5057085;28;20028;-83
2021/03/11 01:55:17;;;;;;;0.08;0.00;;;13.00;74.80;;;;;;5056536;28;20374;-82
2021/03/11 01:57:44;;;;;;;0.00;0.00;;;13.00;74.70;;;;;;5054404;28;20040;-81
2021/03/11 02:00:11;;;;;;;0.00;0.00;;;13.00;74.90;;;;;;5035879;28;20052;-81
2021/03/11 02:02:43;;;;;;;0.00;0.00;;;13.00;75.00;;;;;;5057029;28;20048;-81
2021/03/11 02:05:11;;;;;;;0.00;0.00;;;13.00;75.00;;;;;;5060790;28;20489;-82
2021/03/11 02:07:37;;;;;;;0.00;0.00;;;13.00;75.00;;;;;;5059310;28;20028;-84
2021/03/11 02:10:04;;;;;;;0.00;0.00;;;13.10;75.20;;;;;;5054262;28;20040;-82
2021/03/11 02:12:39;;;;;;;0.00;0.00;;;13.00;75.20;;;;;;5033172;28;20052;-82
2021/03/11 02:15:28;;;;;;;0.00;0.00;;;13.00;75.20;;;;;;5053492;28;20371;-82
2021/03/11 02:18:02;;;;;;;0.00;0.00;;;13.00;75.30;;;;;;5056864;28;20473;-82
2021/03/11 02:20:52;;;;;;;0.00;0.00;;;13.00;75.30;;;;;;5053373;28;20029;-82
2021/03/11 02:23:27;;;;;;;0.00;0.00;;;13.00;75.30;;;;;;5063137;28;20496;-82
2021/03/11 02:26:20;;;;;;;0.00;0.00;;;13.00;75.30;;;;;;5061207;28;20029;-83
2021/03/11 02:29:01;;;;;;;0.05;0.00;;;13.10;75.30;;;;;;5039592;28;20037;-82
2021/03/11 02:31:29;;;;;;;12.00;0.10;;;13.00;75.30;;;;;;5037978;28;20385;-82
2021/03/11 02:33:55;;;;;;;0.88;0.10;;;13.00;75.30;;;;;;5049198;28;20396;-82
2021/03/11 02:36:21;;;;;;;0.00;0.00;;;13.00;75.30;;;;;;5051597;28;20092;-83
2021/03/11 02:38:47;;;;;;;0.45;0.00;;;13.10;75.40;;;;;;5045509;28;20509;-84
2021/03/11 02:41:15;;;;;;;0.25;0.08;;;13.00;75.40;;;;;;5038370;28;20049;-84
2021/03/11 02:43:41;;;;;;;0.40;0.30;;;13.10;75.50;;;;;;5054127;28;20036;-82
2021/03/11 02:46:07;;;;;;;0.00;0.00;;;13.10;75.50;;;;;;5054469;28;20490;-82
2021/03/11 02:48:33;;;;;;;0.00;0.00;;;13.10;75.60;;;;;;5050065;28;20044;-82
2021/03/11 02:50:59;;;;;;;1.25;0.30;;;13.00;75.50;;;;;;5037914;28;20389;-83
2021/03/11 02:53:25;;;;;;;0.00;0.00;;;13.10;75.60;;;;;;5053840;28;20052;-82
2021/03/11 02:55:51;;;;;;;0.30;0.10;;;13.10;75.70;;;;;;5054451;28;20025;-82
2021/03/11 02:58:17;;;;;;;0.00;0.00;;;13.00;75.60;;;;;;5036737;28;20043;-82
2021/03/11 03:00:44;;;;;;;0.28;0.10;;;13.00;75.60;;;;;;5034357;28;20037;-84
2021/03/11 03:03:10;;;;;;;0.00;0.00;;;13.10;75.80;;;;;;5027912;28;20036;-83
2021/03/11 03:05:36;;;;;;;0.98;0.25;;;13.00;75.60;;;;;;5035386;28;20047;-83
2021/03/11 03:08:03;;;;;;;0.00;0.00;;;13.00;75.80;;;;;;5032241;28;20029;-83
2021/03/11 03:10:30;;;;;;;0.08;0.08;;;13.00;75.80;;;;;;5053338;28;20031;-82
2021/03/11 03:13:00;;;;;;;1.17;0.10;;;13.00;75.80;;;;;;5018749;28;20033;-81
2021/03/11 03:15:26;;;;;;;0.03;0.00;;;13.00;75.80;;;;;;5047769;28;20045;-83
2021/03/11 03:17:52;;;;;;;0.00;0.00;;;13.00;75.80;;;;;;5032713;28;20041;-81
2021/03/11 03:20:19;;;;;;;0.90;0.17;;;13.00;75.80;;;;;;5043585;28;20382;-83
2021/03/11 03:22:45;;;;;;;0.93;0.28;;;13.00;76.00;;;;;;5049468;28;20040;-81
2021/03/11 03:25:13;;;;;;;0.00;0.00;;;13.00;75.90;;;;;;5043907;28;20021;-81
2021/03/11 03:27:39;;;;;;;0.52;0.38;;;13.00;76.00;;;;;;5047534;28;20727;-83
2021/03/11 03:30:13;;;;;;;0.00;0.00;;;13.00;76.10;;;;;;5049894;28;20466;-82
2021/03/11 03:32:39;;;;;;;0.00;0.00;;;13.00;76.10;;;;;;5054909;28;20016;-82
2021/03/11 03:35:06;;;;;;;0.00;0.00;;;13.00;76.10;;;;;;5034337;28;20037;-83
2021/03/11 03:37:33;;;;;;;0.38;0.00;;;13.00;76.10;;;;;;5051310;28;20029;-82
2021/03/11 03:40:04;;;;;;;0.00;0.00;;;13.00;76.20;;;;;;5053985;28;20031;-81
2021/03/11 03:42:30;;;;;;;0.00;0.00;;;13.00;76.20;;;;;;5045572;28;20037;-81
2021/03/11 03:44:57;;;;;;;0.00;0.00;;;13.00;76.20;;;;;;5043121;28;20488;-81
2021/03/11 03:47:23;;;;;;;0.00;0.00;;;13.00;76.20;;;;;;5035905;28;20048;-81
2021/03/11 03:49:49;;;;;;;0.00;0.00;;;13.00;76.20;;;;;;5054077;28;20056;-81
2021/03/11 03:52:15;;;;;;;0.03;0.00;;;13.00;76.20;;;;;;5056243;28;20032;-81
2021/03/11 03:54:42;;;;;;;0.00;0.00;;;13.00;76.30;;;;;;5051142;28;20056;-81
2021/03/11 03:57:18;;;;;;;0.00;0.00;;;13.00;76.30;;;;;;5035392;28;20028;-83
2021/03/11 03:59:45;;;;;;;0.20;0.00;;;13.00;76.40;;;;;;5053195;28;20025;-81
2021/03/11 04:02:12;;;;;;;0.00;0.00;;;13.00;76.40;;;;;;5061631;28;20045;-81
2021/03/11 04:04:40;;;;;;;1.55;0.08;;;13.00;76.40;;;;;;5050822;28;20358;-81
2021/03/11 04:07:11;;;;;;;0.00;0.00;;;13.00;76.50;;;;;;5049299;28;20032;-82
2021/03/11 04:09:38;;;;;;;0.00;0.00;;;13.00;76.50;;;;;;5038022;28;20044;-81
2021/03/11 04:12:05;;;;;;;1.35;0.03;;;13.10;76.60;;;;;;5042395;28;20496;-82
2021/03/11 04:14:31;;;;;;;0.00;0.00;;;13.00;76.50;;;;;;5023717;28;20398;-82
2021/03/11 04:16:57;;;;;;;0.00;0.00;;;13.00;76.50;;;;;;5027551;28;20048;-81
2021/03/11 04:19:23;;;;;;;0.00;0.00;;;13.10;76.60;;;;;;5065257;28;20382;-82
2021/03/11 04:21:50;;;;;;;0.00;0.00;;;13.10;76.60;;;;;;5053261;28;20489;-82
2021/03/11 04:24:16;;;;;;;0.00;0.00;;;13.10;76.70;;;;;;5067584;28;20025;-82
2021/03/11 04:26:43;;;;;;;0.00;0.00;;;13.10;76.70;;;;;;5041464;28;20441;-82
2021/03/11 04:29:09;;;;;;;0.52;0.00;;;13.10;76.70;;;;;;5063243;28;20028;-82
2021/03/11 04:31:35;;;;;;;1.00;0.05;;;13.10;76.70;;;;;;5045324;28;20033;-83
2021/03/11 04:34:01;;;;;;;0.00;0.00;;;13.10;76.70;;;;;;5049890;28;20025;-81
2021/03/11 04:36:27;;;;;;;0.00;0.00;;;13.10;76.90;;;;;;5045607;28;20033;-82
2021/03/11 04:38:53;;;;;;;0.00;0.00;;;13.10;76.90;;;;;;5070476;28;20504;-82
2021/03/11 04:41:20;;;;;;;0.00;0.00;;;13.10;76.90;;;;;;5022789;28;20052;-82
2021/03/11 04:43:46;;;;;;;0.00;0.00;;;13.10;76.90;;;;;;5025689;28;20059;-82
2021/03/11 04:46:12;;;;;;;0.00;0.00;;;13.20;77.00;;;;;;5032232;28;20037;-82
2021/03/11 04:48:39;;;;;;;0.80;0.35;;;13.20;77.00;;;;;;5058344;28;20029;-82
2021/03/11 04:51:05;;;;;;;0.00;0.00;;;13.20;76.90;;;;;;5038549;28;20482;-80
2021/03/11 04:53:32;;;;;;;0.00;0.00;;;13.20;77.00;;;;;;5064217;28;20501;-79
2021/03/11 04:55:58;;;;;;;0.00;0.00;;;13.20;77.00;;;;;;5043061;28;20387;-79
2021/03/11 04:58:25;;;;;;;0.00;0.00;;;13.20;77.00;;;;;;5056462;28;20025;-79
2021/03/11 05:00:51;;;;;;;0.00;0.00;;;13.20;77.10;;;;;;5037859;28;20485;-79
2021/03/11 05:03:17;;;;;;;1.45;0.20;;;13.20;77.20;;;;;;5057429;28;20036;-79
2021/03/11 05:05:44;;;;;;;0.00;0.00;;;13.20;77.30;;;;;;5040065;28;20040;-79
2021/03/11 05:08:10;;;;;;;0.00;0.00;;;13.20;77.30;;;;;;5056210;28;20052;-79
2021/03/11 05:10:37;;;;;;;0.00;0.00;;;13.20;77.40;;;;;;5057377;28;20024;-79
2021/03/11 05:13:03;;;;;;;0.00;0.00;;;13.20;77.30;;;;;;5047858;28;20043;-78
2021/03/11 05:15:29;;;;;;;0.45;0.05;;;13.20;77.30;;;;;;5051149;28;20033;-78
2021/03/11 05:17:55;;;;;;;0.00;0.00;;;13.30;77.40;;;;;;5063852;28;20028;-82
2021/03/11 05:20:22;;;;;;;0.00;0.00;;;13.30;77.30;;;;;;5046260;28;20036;-82
2021/03/11 05:22:48;;;;;;;0.03;0.00;;;13.30;77.30;;;;;;5044711;28;20055;-82
2021/03/11 05:25:14;;;;;;;0.00;0.00;;;13.30;77.30;;;;;;5047617;28;20055;-82
2021/03/11 05:27:40;;;;;;;3.60;0.32;;;13.30;77.30;;;;;;5052972;28;20040;-81
2021/03/11 05:30:08;;;;;;;10.07;0.20;;;13.30;77.30;;;;;;5052030;28;20032;-82
2021/03/11 05:32:34;;;;;;;0.00;0.00;;;13.30;77.30;;;;;;5040242;28;20383;-81
2021/03/11 05:35:01;;;;;;;0.00;0.00;;;13.30;77.30;;;;;;5056254;28;20047;-82
2021/03/11 05:37:27;;;;;;;4.00;0.03;;;13.30;78.20;;;;;;5054948;28;20025;-81
2021/03/11 05:39:54;;;;;;;0.20;0.00;;;13.30;77.30;;;;;;5038161;28;20044;-82
2021/03/11 05:42:20;;;;;;;0.00;0.00;;;13.30;77.50;;;;;;5068508;28;20749;-82
2021/03/11 05:44:46;;;;;;;0.40;0.17;;;13.30;77.40;;;;;;5039668;28;20032;-82
2021/03/11 05:47:13;;;;;;;0.85;0.10;;;13.30;77.40;;;;;;5056575;28;20037;-84
2021/03/11 05:49:39;;;;;;;0.00;0.00;;;13.30;77.50;;;;;;5056440;28;20025;-84
2021/03/11 05:52:09;;;;;;;0.00;0.00;;;13.30;77.50;;;;;;5038815;28;20037;-84
2021/03/11 05:54:35;;;;;;;0.03;0.00;;;13.30;77.50;;;;;;5051921;28;20450;-84
2021/03/11 05:57:02;;;;;;;0.00;0.00;;;13.30;77.50;;;;;;5038448;28;20040;-84
2021/03/11 05:59:28;;;;;;;3.42;0.17;;;13.30;77.50;;;;;;5064024;28;20055;-84
2021/03/11 06:01:55;;;;;;;0.10;0.00;;;13.30;77.60;;;;;;5060207;28;20044;-84
2021/03/11 06:04:21;;;;;;;0.00;0.00;;;13.30;77.70;;;;;;5057119;28;20036;-84
2021/03/11 06:06:48;;;;;;;0.00;0.00;;;13.30;77.60;;;;;;5067728;28;20424;-82
2021/03/11 06:09:18;;;;;;;0.25;0.00;;;13.30;77.70;;;;;;5036295;28;20037;-84
2021/03/11 06:11:44;;;;;;;9.63;0.43;;;13.30;77.70;;;;;;5055939;28;20056;-84
2021/03/11 06:14:14;;;;;;;0.00;0.00;;;13.20;77.70;;;;;;5056500;28;20029;-83
2021/03/11 06:16:44;;;;;;;0.08;0.08;;;13.20;77.60;;;;;;5054851;28;20025;-83
2021/03/11 06:19:10;;;;;;;1.17;0.00;;;13.20;77.70;;;;;;5055094;28;20021;-83
2021/03/11 06:21:36;;;;;;;0.00;0.00;;;13.20;77.70;;;;;;5052465;28;20385;-83
2021/03/11 06:24:02;;;;;;;3.83;0.10;;;13.20;77.70;;;;;;5037389;28;20041;-83
2021/03/11 06:26:28;;;;;;;0.00;0.00;;;13.20;77.80;;;;;;5055741;28;20039;-83
2021/03/11 06:28:54;;;;;;;0.00;0.00;;;13.10;77.70;;;;;;5059591;28;20047;-83
2021/03/11 06:31:24;;;;;;;0.00;0.00;;;13.10;77.80;;;;;;5045514;28;20024;-83
2021/03/11 06:33:50;;;;;;;0.10;0.00;;;13.10;77.80;;;;;;5054623;28;20074;-83
2021/03/11 06:36:17;;;;;;;0.40;0.15;;;13.10;77.80;;;;;;5051916;28;20032;-83
2021/03/11 06:38:43;;;;;;;2.63;0.20;;;13.10;77.90;;;;;;5038853;28;20029;-83
2021/03/11 06:41:09;;;;;;;1.02;0.05;;;13.00;77.80;;;;;;5054644;28;20045;-83
2021/03/11 06:43:53;;;;;;;4.28;0.08;;;13.10;78.00;;;;;;5054644;28;20059;-83
2021/03/11 06:46:21;;;;;;;3.42;0.73;;;13.00;78.00;;;;;;5037458;28;20041;-83
2021/03/11 06:48:48;;;;;;;0.47;0.20;;;13.00;78.00;;;;;;5052670;28;20025;-84
2021/03/11 06:51:19;;;;;;;6.70;0.22;;;13.00;78.10;;;;;;5052046;28;20025;-83
2021/03/11 06:53:56;;;;;;;1.50;0.22;;;13.00;78.40;;;;;;5038769;28;20393;-83
2021/03/11 06:56:25;;;;;;;2.53;0.20;;;13.00;78.10;;;;;;5061941;28;20037;-83
2021/03/11 06:58:58;;;;;;;0.95;0.25;;;13.00;78.10;;;;;;5043191;28;20041;-81
2021/03/11 07:01:26;;;;;;;1.65;0.68;;;12.90;78.00;;;;;;5053971;28;20033;-81
2021/03/11 07:03:53;;;;;;;0.00;0.00;;;12.90;78.00;;;;;;5036103;28;20048;-81
2021/03/11 07:06:29;;;;;;;1.08;0.98;;;12.90;78.00;;;;;;5051498;28;20469;-81
2021/03/11 07:08:55;;;;;;;0.00;0.00;;;12.90;78.00;;;;;;5049109;28;20041;-81
2021/03/11 07:11:21;;;;;;;9.52;0.52;;;12.90;78.00;;;;;;5054765;28;20032;-82
2021/03/11 07:13:48;;;;;;;3.30;0.22;;;12.90;78.00;;;;;;5034516;28;20505;-81
2021/03/11 07:16:17;;;;;;;0.47;0.20;;;12.90;78.00;;;;;;5026973;28;20032;-82
2021/03/11 07:18:44;;;;;;;0.00;0.00;;;12.80;78.00;;;;;;5051253;28;20036;-83
2021/03/11 07:21:10;;;;;;;10.43;0.63;;;12.90;78.00;;;;;;5040593;28;20028;-80
2021/03/11 07:23:46;;;;;;;0.25;0.00;;;12.90;78.00;;;;;;5065261;28;20390;-79
2021/03/11 07:26:12;;;;;;;0.00;0.00;;;12.80;78.00;;;;;;5055745;28;20029;-80
2021/03/11 07:28:38;;;;;;;5.72;0.28;;;12.80;78.00;;;;;;5054210;28;20029;-78
2021/03/11 07:31:04;;;;;;;7.47;0.70;;;12.80;78.00;;;;;;5050207;28;20413;-78
2021/03/11 07:33:33;;;;;;;0.63;0.17;;;12.80;78.00;;;;;;5048760;28;20067;-80
2021/03/11 07:36:00;;;;;;;6.68;0.20;;;12.80;78.00;;;;;;5040469;28;20044;-81
2021/03/11 07:38:28;;;;;;;0.90;0.28;;;12.80;78.00;;;;;;5049600;28;20397;-80
2021/03/11 07:40:55;;;;;;;13.70;0.60;;;12.70;78.00;;;;;;5052065;28;20033;-81
2021/03/11 07:43:23;;;;;;;1.25;0.40;;;12.70;77.90;;;;;;5051622;28;20044;-81
2021/03/11 07:45:49;;;;;;;1.65;0.15;;;12.70;77.90;;;;;;5033241;28;20037;-80
2021/03/11 07:48:16;;;;;;;1.58;0.15;;;12.70;77.90;;;;;;5052345;28;20037;-79
2021/03/11 07:50:45;;;;;;;0.00;0.00;;;12.70;77.80;;;;;;5065704;28;20032;-80
2021/03/11 07:53:11;;;;;;;0.40;0.32;;;12.70;77.80;;;;;;5069833;28;20040;-80
2021/03/11 07:55:37;;;;;;;0.00;0.00;;;12.70;77.80;;;;;;5052356;28;20037;-81
2021/03/11 07:58:07;;;;;;;0.30;0.30;;;12.70;77.70;;;;;;5052598;28;20032;-80
2021/03/11 08:00:33;;;;;;;11.27;0.20;;;12.70;77.70;;;;;;5046063;28;20397;-80
2021/03/11 08:03:20;;;;;;;0.10;0.03;;;12.70;77.70;;;;;;5048555;28;20397;-80
2021/03/11 08:05:46;;;;;;;8.38;0.28;;;12.70;77.70;;;;;;5038014;28;20037;-80
2021/03/11 08:08:22;;;;;;;0.00;0.00;;;12.80;77.70;;;;;;5036363;28;20044;-80
2021/03/11 08:10:52;;;;;;;0.17;0.00;;;12.80;77.60;;;;;;5054521;28;20397;-80
2021/03/11 08:13:25;;;;;;;0.00;0.00;;;12.80;77.60;;;;;;5046762;28;20044;-81
2021/03/11 08:15:51;;;;;;;13.02;0.22;;;12.80;77.50;;;;;;5056294;28;20039;-80
2021/03/11 08:18:32;;;;;;;0.28;0.20;;;12.80;77.40;;;;;;5037138;28;20029;-81
2021/03/11 08:21:02;;;;;;;;;;;12.80;77.40;;;;;;5065773;28;20033;-78
2021/03/11 08:23:29;;;;;;;8.40;0.73;;;12.80;77.30;;;;;;5058239;28;19917;-81
2021/03/11 08:25:55;;;;;;;0.10;0.00;;;12.90;77.20;;;;;;5057429;28;20048;-82
2021/03/11 08:28:22;;;;;;;0.00;0.00;;;12.90;77.20;;;;;;5057525;28;20069;-86
2021/03/11 08:30:48;;;;;;;0.55;0.20;;;12.80;77.10;;;;;;5055100;28;20037;-83
2021/03/11 08:33:34;;;;;;;0.25;0.08;;;12.90;77.10;;;;;;5055658;28;20033;-85
2021/03/11 08:36:01;;;;;;;2.78;0.75;;;12.90;77.00;;;;;;5068203;28;20032;-84
2021/03/11 08:38:29;;;;;;;0.88;0.15;;;12.90;77.00;;;;;;5041258;28;20024;-85
2021/03/11 08:41:08;;;;;;;7.22;0.70;;;12.90;76.90;;;;;;5073462;28;20037;-84
2021/03/11 08:43:37;;;;;;;3.20;0.30;;;12.90;76.90;;;;;;5056805;28;20041;-83
2021/03/11 08:46:12;;;;;;;0.65;0.63;;;12.90;77.60;;;;;;5052676;28;20052;-86
2021/03/11 08:48:46;;;;;;;8.57;0.22;;;13.00;76.80;;;;;;5068989;28;20032;-86
2021/03/11 08:51:32;;;;;;;5.45;0.47;;;13.00;76.70;;;;;;5038496;28;20166;-85
2021/03/11 08:53:59;;;;;;;11.27;0.38;;;13.00;76.70;;;;;;5068898;28;20036;-84
2021/03/11 08:56:26;;;;;;;0.50;0.00;;;13.00;76.50;;;;;;5039108;28;20068;-84
2021/03/11 08:59:02;;;;;;;0.00;0.00;;;13.10;76.60;;;;;;5059981;28;20409;-80
2021/03/11 09:01:28;;;;;;;2.50;0.32;;;13.30;77.00;;;;;;5063379;28;20035;-81
2021/03/11 09:03:54;;;;;;;1.95;0.47;;;13.50;75.90;;;;;;5059930;28;20037;-86
2021/03/11 09:06:20;;;;;;;1.52;0.47;;;13.60;75.60;;;;;;5036924;28;20045;-86
2021/03/11 09:08:52;;;;;;;2.47;0.32;;;13.60;75.50;;;;;;5039664;28;20417;-82
2021/03/11 09:11:22;;;;;;;0.75;0.22;;;13.70;75.40;;;;;;5056810;28;20033;-85
2021/03/11 09:13:50;;;;;;;0.10;0.05;;;13.80;75.30;;;;;;5056029;28;20032;-88
2021/03/11 09:16:16;;;;;;;4.30;0.75;;;13.80;75.20;;;;;;5055194;28;20033;-84
2021/03/11 09:18:42;;;;;;;0.82;0.40;;;13.80;75.30;;;;;;5054508;28;20393;-84
2021/03/11 09:21:08;;;;;;;6.45;0.60;;;13.80;76.10;;;;;;5068040;28;20025;-85
2021/03/11 09:23:41;;;;;;;0.88;0.10;;;13.80;75.20;;;;;;5055807;28;20442;-85
2021/03/11 09:26:43;;;;;;;3.40;0.13;;;13.90;75.10;;;;;;5055986;28;20021;-88
2021/03/11 09:29:09;;;;;;;;;;;13.90;75.00;;;;;;4959666;28;20412;-87
2021/03/11 09:31:35;;;;;;;3.58;0.57;;;14.00;74.90;;;;;;4971140;28;20304;-88
2021/03/11 09:34:02;;;;;;;7.70;0.63;;;14.10;74.70;;;;;;4944114;28;20034;-87
2021/03/11 09:36:28;;;;;;;1.60;0.28;;;14.10;74.60;;;;;;4971927;28;20134;-85
2021/03/11 09:39:04;;;;;;;9.73;0.30;;;14.20;74.50;;;;;;4974403;28;20041;-87
2021/03/11 09:41:31;;;;;;;0.80;0.20;;;14.20;74.40;;;;;;4943921;28;20035;-85
2021/03/11 09:44:06;;;;;;;4.22;0.63;;;14.20;74.30;;;;;;4978748;28;20070;-87
2021/03/11 09:46:33;;;;;;;2.00;0.52;;;14.30;74.30;;;;;;4982283;28;20487;-81
2021/03/11 09:48:59;;;;;;;0.77;0.17;;;14.40;74.20;;;;;;4986938;28;20511;-80
2021/03/11 09:51:29;;;;;;;1.15;0.28;;;14.60;73.90;;;;;;4974587;28;20046;-90
2021/03/11 09:53:57;;;;;;;0.03;0.00;;;14.90;73.40;;;;;;4960825;28;20038;-89
2021/03/11 09:56:27;;;;;;;1.17;0.45;;;15.20;73.10;;;;;;4982345;28;20049;-88
2021/03/11 09:58:57;;;;;;;0.80;0.15;;;15.40;72.50;;;;;;4979941;28;20113;-84
2021/03/11 10:01:30;;;;;;;0.52;0.35;;;15.40;72.20;;;;;;4983069;28;20035;-81
2021/03/11 10:03:56;;;;;;;6.90;0.38;;;15.40;72.30;;;;;;5032509;28;20048;-82
2021/03/11 10:06:23;;;;;;;0.73;0.43;;;15.30;72.40;;;;;;5051117;28;20035;-82
2021/03/11 10:08:56;;;;;;;6.07;0.30;;;15.20;72.80;;;;;;5058068;28;20033;-85
2021/03/11 10:11:29;;;;;;;15.70;0.55;;;15.10;72.90;;;;;;5035020;28;20037;-83
2021/03/11 10:14:01;;;;;;;0.75;0.38;;;15.10;72.90;;;;;;5052688;28;20040;-82
2021/03/11 10:16:36;;;;;;;0.80;0.38;;;15.20;72.70;;;;;;5054460;28;20029;-81
2021/03/11 10:19:06;;;;;;;3.60;0.80;;;15.30;72.60;;;;;;5056218;28;20051;-82
2021/03/11 10:21:45;;;;;;;1.45;0.32;;;15.30;72.50;;;;;;5065160;28;20025;-84
2021/03/11 10:24:11;;;;;;;1.65;0.20;;;15.40;73.20;;;;;;5053574;28;20036;-84
2021/03/11 10:26:37;;;;;;;7.35;0.25;;;15.50;72.10;;;;;;5056085;28;20033;-83
2021/03/11 10:29:08;;;;;;;2.85;0.20;;;15.60;71.90;;;;;;5053596;28;20028;-81
2021/03/11 10:31:34;;;;;;;0.50;0.10;;;15.80;71.50;;;;;;5056186;28;20047;-78
2021/03/11 10:34:07;;;;;;;4.72;0.80;;;15.90;71.20;;;;;;5060036;28;20025;-85
2021/03/11 10:36:34;;;;;;;1.60;0.22;;;16.10;71.00;;;;;;5034609;28;20536;-86
2021/03/11 10:39:12;;;;;;;0.82;0.08;;;16.40;70.60;;;;;;5047734;28;20418;-83
2021/03/11 10:41:40;;;;;;;0.30;0.10;;;16.50;70.00;;;;;;5047394;28;20031;-89
2021/03/11 10:44:07;;;;;;;4.03;0.15;;;16.60;69.90;;;;;;5057137;28;20413;-84
2021/03/11 10:46:33;;;;;;;0.93;0.28;;;16.50;70.00;;;;;;5036016;28;20022;-86
2021/03/11 10:48:59;;;;;;;12.20;0.30;;;16.50;70.10;;;;;;5043548;28;20456;-84
2021/03/11 10:51:27;;;;;;;8.75;1.10;;;16.60;69.90;;;;;;5050617;28;20033;-86
2021/03/11 10:53:54;;;;;;;3.80;0.30;;;16.70;70.40;;;;;;5063736;28;20355;-85
2021/03/11 10:56:20;;;;;;;2.50;0.75;;;16.70;70.20;;;;;;5065954;28;20059;-83
2021/03/11 10:58:47;;;;;;;0.30;0.13;;;16.60;69.40;;;;;;5060777;28;20040;-85
2021/03/11 11:01:17;;;;;;;1.23;0.25;;;16.50;69.40;;;;;;5055145;28;20043;-87
2021/03/11 11:03:44;;;;;;;2.35;0.55;;;16.30;69.50;;;;;;5053787;28;20041;-87
2021/03/11 11:06:10;;;;;;;2.90;0.38;;;16.10;69.80;;;;;;5058614;28;20035;-84
2021/03/11 11:08:37;;;;;;;0.20;0.05;;;15.80;70.10;;;;;;5055109;28;20044;-87
2021/03/11 11:11:03;;;;;;;0.00;0.00;;;15.70;70.50;;;;;;5052983;28;20025;-86
2021/03/11 11:13:30;;;;;;;2.63;0.75;;;15.50;70.70;;;;;;5052552;28;20040;-86
2021/03/11 11:15:56;;;;;;;6.00;0.40;;;15.40;70.90;;;;;;5053799;28;20400;-82
2021/03/11 11:18:22;;;;;;;3.85;0.65;;;15.30;71.10;;;;;;5049957;28;20473;-83
2021/03/11 11:20:49;;;;;;;4.68;0.47;;;15.10;71.20;;;;;;5037438;28;20037;-89
2021/03/11 11:23:15;;;;;;;0.40;0.30;;;15.00;71.40;;;;;;5053207;28;20045;-84
2021/03/11 11:25:41;;;;;;;5.25;1.00;;;14.90;71.40;;;;;;5050519;28;20045;-86
2021/03/11 11:28:07;;;;;;;2.88;0.93;;;15.00;71.50;;;;;;5044384;28;20028;-85
2021/03/11 11:30:33;;;;;;;7.65;0.30;;;15.10;71.10;;;;;;5050515;28;20032;-85
2021/03/11 11:32:59;;;;;;;0.68;0.13;;;15.40;70.70;;;;;;5072286;28;20051;-85
2021/03/11 11:35:25;;;;;;;8.05;0.60;;;15.60;70.00;;;;;;5053819;28;20037;-84
2021/03/11 11:37:52;;;;;;;0.03;0.03;;;15.90;69.40;;;;;;5053626;28;20032;-86
2021/03/11 11:40:18;;;;;;;1.08;0.00;;;16.10;68.90;;;;;;5053159;28;20039;-85
2021/03/11 11:42:45;;;;;;;1.85;0.50;;;16.30;68.50;;;;;;5049873;28;20045;-86
2021/03/11 11:45:14;;;;;;;2.83;0.93;;;16.50;68.20;;;;;;5049039;28;20048;-86
2021/03/11 11:47:40;;;;;;;4.75;0.75;;;16.70;67.90;;;;;;5053629;28;20044;-85
2021/03/11 11:50:07;;;;;;;0.40;0.10;;;16.80;67.50;;;;;;5059998;28;20044;-84
2021/03/11 11:52:33;;;;;;;0.08;0.00;;;17.00;67.20;;;;;;5051368;28;20032;-86
2021/03/11 11:54:59;;;;;;;0.40;0.10;;;17.00;66.80;;;;;;5047161;28;20033;-88
2021/03/11 11:57:25;;;;;;;1.15;0.32;;;17.10;66.70;;;;;;5049688;28;20021;-86
2021/03/11 11:59:51;;;;;;;7.05;1.10;;;17.20;66.40;;;;;;5051258;28;20033;-88
2021/03/11 12:02:18;;;;;;;0.25;0.22;;;17.20;66.20;;;;;;5054478;28;20381;-88
2021/03/11 12:04:44;;;;;;;0.80;0.10;;;17.20;66.00;;;;;;5053458;28;20041;-85
2021/03/11 12:07:10;;;;;;;1.02;0.32;;;17.30;65.90;;;;;;5053646;28;20040;-84
2021/03/11 12:09:36;;;;;;;9.70;0.80;;;17.40;65.70;;;;;;5032698;28;20044;-82
2021/03/11 12:12:03;;;;;;;12.20;1.15;;;17.50;65.50;;;;;;5052997;28;20654;-83
2021/03/11 12:14:29;;;;;;;7.15;1.05;;;17.50;65.20;;;;;;5055047;28;20029;-82
2021/03/11 12:16:55;;;;;;;8.40;1.35;;;17.60;65.00;;;;;;5054191;28;20037;-82
2021/03/11 12:19:21;;;;;;;1.30;0.40;;;17.70;64.80;;;;;;5047673;28;20394;-82
2021/03/11 12:21:47;;;;;;;5.93;0.20;;;17.90;64.40;;;;;;5051569;28;20062;-82
2021/03/11 12:24:13;;;;;;;0.20;0.00;;;17.90;64.10;;;;;;5067297;28;20504;-84
2021/03/11 12:26:39;;;;;;;15.45;0.20;;;17.90;63.70;;;;;;5054887;28;20045;-82
2021/03/11 12:29:05;;;;;;;11.57;1.20;;;17.90;63.50;;;;;;5056217;28;20044;-82
2021/03/11 12:31:32;;;;;;;1.10;0.28;;;17.90;63.40;;;;;;5048640;28;20037;-81
2021/03/11 12:33:58;;;;;;;3.97;0.35;;;17.90;63.20;;;;;;5051303;28;20040;-81
2021/03/11 12:36:25;;;;;;;1.02;0.30;;;17.80;63.10;;;;;;5052704;28;20040;-82
2021/03/11 12:38:52;;;;;;;0.40;0.10;;;17.90;62.70;;;;;;5023561;28;20083;-83
2021/03/11 12:41:19;;;;;;;5.60;0.25;;;18.00;62.40;;;;;;5038376;28;20045;-83
2021/03/11 12:43:47;;;;;;;0.00;0.00;;;18.00;61.80;;;;;;5055128;28;20397;-83
2021/03/11 12:46:13;;;;;;;2.17;0.35;;;18.10;61.60;;;;;;5039188;28;20033;-83
2021/03/11 12:48:40;;;;;;;0.03;0.00;;;18.00;61.40;;;;;;5049304;28;20024;-82
2021/03/11 12:51:06;;;;;;;0.75;0.65;;;18.10;61.30;;;;;;5053449;28;20032;-86